createdAt,value
2022-08-08T00:03:59.696Z,5.40
2022-08-08T00:19:00.488Z,5.00
2022-08-08T00:34:18.515Z,5.00
2022-08-08T00:49:22.022Z,5.50
2022-08-08T01:04:12.689Z,5.50
2022-08-08T01:19:25.490Z,5.40
2022-08-08T01:34:20.269Z,6.50
2022-08-08T01:49:23.325Z,6.00
2022-08-08T02:04:25.846Z,6.20
2022-08-08T02:20:08.061Z,6.90
2022-08-08T02:34:35.693Z,6.70
2022-08-08T02:49:51.065Z,6.70
2022-08-08T03:05:05.090Z,7.00
2022-08-08T03:19:51.561Z,8.30
2022-08-08T03:34:52.362Z,8.10
2022-08-08T03:50:01.149Z,8.50
2022-08-08T04:04:57.931Z,9.60
2022-08-08T04:19:58.036Z,8.60
2022-08-08T04:34:58.812Z,8.50
2022-08-08T04:50:04.564Z,8.50
2022-08-08T05:05:04.897Z,8.20
2022-08-08T05:20:13.293Z,6.50
2022-08-08T05:35:13.565Z,6.40
2022-08-08T05:50:14.971Z,6.30
2022-08-08T06:05:33.576Z,6.00
2022-08-08T06:20:25.745Z,6.60
2022-08-08T06:36:03.926Z,5.80
2022-08-08T06:50:33.904Z,5.10
2022-08-08T07:05:40.326Z,999.90
2022-08-08T07:20:50.497Z,999.90
2022-08-08T07:35:48.642Z,999.90
2022-08-08T07:50:52.510Z,999.90
2022-08-08T08:05:53.657Z,999.90
2022-08-08T08:20:54.887Z,999.90
2022-08-08T08:36:19.340Z,999.90
2022-08-08T08:51:03.345Z,626.40
2022-08-08T09:06:04.269Z,805.70
2022-08-08T09:21:58.132Z,57.10
2022-08-08T09:36:19.210Z,3.10
2022-08-08T09:51:23.103Z,4.20
2022-08-08T10:06:29.496Z,3.60
2022-08-08T10:21:32.897Z,4.10
2022-08-08T10:36:34.410Z,4.60
2022-08-08T10:51:47.178Z,12.60
2022-08-08T11:06:47.490Z,152.10
2022-08-08T11:21:55.515Z,137.90
2022-08-08T11:36:58.562Z,106.40
2022-08-08T11:51:59.319Z,131.10
2022-08-08T12:07:04.654Z,76.80
2022-08-08T12:22:13.910Z,58.00
2022-08-08T12:37:14.413Z,39.40
2022-08-08T12:52:28.644Z,109.10
2022-08-08T13:08:03.873Z,222.10
2022-08-08T13:22:28.515Z,114.90
2022-08-08T13:38:05.214Z,999.90
2022-08-08T13:52:37.948Z,999.90
2022-08-08T14:07:42.400Z,999.90
2022-08-08T14:22:43.163Z,932.10
2022-08-08T14:38:00.922Z,241.30
2022-08-08T14:52:49.988Z,999.90
2022-08-08T15:07:50.615Z,999.90
2022-08-08T15:22:57.373Z,406.60
2022-08-08T15:37:58.485Z,605.20
2022-08-08T15:53:00.614Z,896.20
2022-08-08T16:08:01.710Z,782.20
2022-08-08T16:23:04.896Z,645.50
2022-08-08T16:38:12.368Z,389.30
2022-08-08T16:55:05.351Z,316.10
2022-08-08T17:08:20.545Z,243.00
2022-08-08T17:23:58.564Z,115.20
2022-08-08T17:38:31.113Z,42.10
2022-08-08T17:53:43.170Z,22.40
2022-08-08T18:08:41.916Z,9.10
2022-08-08T18:23:52.799Z,5.00
2022-08-08T18:38:49.932Z,4.30
2022-08-08T18:54:02.895Z,4.10
2022-08-08T19:08:58.743Z,999.90
2022-08-08T19:23:59.364Z,999.90
2022-08-08T19:39:03.414Z,361.50
2022-08-08T19:54:04.010Z,340.30
2022-08-08T20:09:09.143Z,286.90
2022-08-08T20:24:10.846Z,220.70
2022-08-08T20:39:11.113Z,112.50
2022-08-08T20:54:14.239Z,72.90
2022-08-08T21:09:17.996Z,38.30
2022-08-08T21:24:30.078Z,31.10
2022-08-08T21:39:54.613Z,40.10
2022-08-08T21:55:01.903Z,27.30
2022-08-08T22:09:40.927Z,21.40
2022-08-08T22:24:44.521Z,23.00
2022-08-08T22:40:00.135Z,18.70
2022-08-08T22:55:04.622Z,12.60
2022-08-08T23:09:58.750Z,17.90
2022-08-08T23:25:00.215Z,8.00
2022-08-08T23:40:01.396Z,5.60
2022-08-08T23:55:14.223Z,5.70
